Time;durP1;ratioP1;P1;durP2;ratioP2;P2;SDS_P1;SDS_P2;PMS_P1;PMS_P2;Temp;Humidity;BMP_temperature;BMP_pressure;BME280_temperature;BME280_humidity;BME280_pressure;Samples;Min_cycle;Max_cycle;Signal;HPM_P1;HPM_P2
2021/01/11 00:02:02;;;;;;;33.55;19.27;;;-0.10;1.00;;;;;;5100705;28;20024;-85
2021/01/11 00:04:28;;;;;;;35.33;21.27;;;-0.40;1.00;;;;;;5092186;28;20286;-85
2021/01/11 00:06:54;;;;;;;34.15;20.88;;;-0.50;1.00;;;;;;5090580;28;20035;-85
2021/01/11 00:09:21;;;;;;;29.88;18.83;;;-0.60;1.00;;;;;;5091086;28;20118;-86
2021/01/11 00:11:47;;;;;;;38.53;23.73;;;-0.50;1.00;;;;;;5098584;28;20481;-85
2021/01/11 00:14:13;;;;;;;34.70;21.42;;;-0.60;1.00;;;;;;5100083;28;20038;-85
2021/01/11 00:16:38;;;;;;;30.15;18.00;;;-0.60;1.00;;;;;;5110474;28;20032;-85
2021/01/11 00:19:04;;;;;;;34.70;22.45;;;-0.60;1.00;;;;;;5110392;28;20024;-86
2021/01/11 00:21:29;;;;;;;28.60;18.40;;;-0.30;1.00;;;;;;5112665;28;20030;-86
2021/01/11 00:23:55;;;;;;;27.40;17.52;;;-0.50;1.00;;;;;;5111043;28;20052;-85
2021/01/11 00:26:21;;;;;;;42.17;25.60;;;-0.30;1.00;;;;;;5094038;28;20031;-85
2021/01/11 00:28:47;;;;;;;37.97;21.95;;;-0.50;1.00;;;;;;5099546;28;20024;-85
2021/01/11 00:31:21;;;;;;;30.20;18.30;;;-0.60;1.00;;;;;;5106506;28;20028;-86
2021/01/11 00:33:47;;;;;;;29.45;18.65;;;-0.60;1.00;;;;;;5111220;28;20034;-86
2021/01/11 00:36:12;;;;;;;29.77;18.35;;;-0.60;1.00;;;;;;5103274;28;20393;-85
2021/01/11 00:38:38;;;;;;;26.35;17.23;;;-0.60;1.00;;;;;;5092052;28;20029;-85
2021/01/11 00:41:04;;;;;;;26.77;16.45;;;-0.60;1.00;;;;;;5090727;28;20035;-85
2021/01/11 00:43:29;;;;;;;28.80;17.45;;;-0.60;1.00;;;;;;5097294;28;20042;-86
2021/01/11 00:45:55;;;;;;;24.58;16.13;;;-0.60;1.00;;;;;;5116257;28;20047;-85
2021/01/11 00:48:21;;;;;;;31.50;19.58;;;-0.60;1.00;;;;;;5116142;28;20028;-86
2021/01/11 00:50:46;;;;;;;35.30;20.92;;;-0.70;1.00;;;;;;5114864;28;20110;-85
2021/01/11 00:53:12;;;;;;;25.00;16.25;;;-0.70;1.00;;;;;;5115899;28;20027;-85
2021/01/11 00:55:37;;;;;;;27.05;17.27;;;-0.80;1.00;;;;;;5112419;28;20050;-86
2021/01/11 00:58:03;;;;;;;26.77;18.25;;;-0.80;1.00;;;;;;5097366;28;20026;-85
2021/01/11 01:00:29;;;;;;;27.13;17.58;;;-0.80;1.00;;;;;;5099945;28;20016;-86
2021/01/11 01:02:54;;;;;;;30.83;19.90;;;-0.70;1.00;;;;;;5094039;28;20063;-85
2021/01/11 01:05:20;;;;;;;27.83;17.92;;;-0.70;1.00;;;;;;5094320;28;20066;-85
2021/01/11 01:07:46;;;;;;;27.13;16.83;;;-0.70;1.00;;;;;;5099391;28;20484;-85
2021/01/11 01:10:12;;;;;;;29.42;18.02;;;-0.70;1.00;;;;;;5113987;28;20419;-85
2021/01/11 01:12:38;;;;;;;29.20;18.33;;;-0.80;1.00;;;;;;5103880;28;20073;-85
2021/01/11 01:15:06;;;;;;;29.35;16.50;;;-0.80;1.00;;;;;;5094920;28;20028;-85
2021/01/11 01:17:33;;;;;;;25.58;15.88;;;-0.80;1.00;;;;;;5113630;28;20031;-86
2021/01/11 01:19:59;;;;;;;29.05;18.00;;;-1.00;1.00;;;;;;5114774;28;20031;-86
2021/01/11 01:22:24;;;;;;;26.40;16.02;;;-0.90;1.00;;;;;;5106753;28;20527;-85
2021/01/11 01:24:50;;;;;;;27.10;16.50;;;-1.00;1.00;;;;;;5115225;28;20443;-85
2021/01/11 01:27:15;;;;;;;27.10;17.30;;;-0.90;1.00;;;;;;5112089;28;20024;-85
2021/01/11 01:29:41;;;;;;;27.02;16.65;;;-0.90;1.00;;;;;;5097606;28;20516;-85
2021/01/11 01:32:07;;;;;;;34.50;19.30;;;-0.80;1.00;;;;;;5106423;28;20015;-86
2021/01/11 01:34:32;;;;;;;28.30;17.70;;;-0.70;1.00;;;;;;5113896;28;20409;-85
2021/01/11 01:36:58;;;;;;;28.35;16.95;;;-0.60;1.00;;;;;;5113834;28;20035;-86
2021/01/11 01:39:23;;;;;;;24.30;16.58;;;-0.50;1.00;;;;;;5113693;28;20370;-85
2021/01/11 01:41:49;;;;;;;28.02;17.13;;;-0.40;1.00;;;;;;5113888;28;20035;-85
2021/01/11 01:44:15;;;;;;;29.48;17.27;;;-0.40;1.00;;;;;;5094888;28;20042;-86
2021/01/11 07:41:00;;;;;;;23.98;15.73;;;-0.50;1.00;;;;;;5129819;27;20390;-91
2021/01/11 07:43:26;;;;;;;21.23;14.52;;;-0.20;1.00;;;;;;5131664;27;20027;-91
2021/01/11 07:46:03;;;;;;;30.55;18.95;;;-0.10;1.00;;;;;;5130182;28;20031;-90
2021/01/11 07:48:29;;;;;;;31.02;18.75;;;-0.10;1.00;;;;;;5130989;28;20028;-92
2021/01/11 07:51:08;;;;;;;23.08;15.10;;;-0.20;1.00;;;;;;5129257;28;20035;-92
2021/01/11 07:53:40;;;;;;;52.88;29.60;;;-0.10;1.00;;;;;;5129619;28;20049;-92
2021/01/11 07:56:09;;;;;;;22.58;14.93;;;0.10;1.00;;;;;;5113992;28;20027;-92
2021/01/11 07:58:37;;;;;;;23.58;15.35;;;0.20;1.00;;;;;;5129921;27;20077;-92
2021/01/11 08:01:05;;;;;;;23.40;15.80;;;0.10;1.00;;;;;;5130605;27;20487;-93
2021/01/11 08:03:31;;;;;;;23.02;15.23;;;0.40;1.00;;;;;;5130640;28;20492;-93
2021/01/11 08:06:04;;;;;;;21.85;14.93;;;0.50;1.00;;;;;;5129066;27;20068;-92
2021/01/11 08:08:34;;;;;;;21.38;14.68;;;0.10;1.00;;;;;;5130041;27;20038;-92
2021/01/11 08:11:04;;;;;;;22.25;14.98;;;0.50;1.00;;;;;;5125341;27;20027;-92
2021/01/11 08:13:30;;;;;;;22.20;14.85;;;0.30;1.00;;;;;;5125003;27;20046;-92
2021/01/11 08:16:10;;;;;;;27.13;17.63;;;0.30;1.00;;;;;;5123620;28;20019;-91
2021/01/11 08:18:35;;;;;;;21.38;14.07;;;0.60;1.00;;;;;;5127340;28;20019;-90
2021/01/11 08:21:08;;;;;;;25.42;15.38;;;0.40;1.00;;;;;;5128536;27;20028;-92
2021/01/11 08:23:35;;;;;;;23.85;14.93;;;0.50;1.00;;;;;;5129007;28;20519;-91
2021/01/11 08:26:05;;;;;;;21.48;14.52;;;0.60;1.00;;;;;;5129066;28;20438;-92
2021/01/11 08:28:32;;;;;;;23.90;14.95;;;0.60;1.00;;;;;;5128625;28;20027;-93
2021/01/11 08:31:01;;;;;;;23.40;15.25;;;0.50;1.00;;;;;;5111157;28;20025;-90
2021/01/11 08:33:29;;;;;;;22.02;14.15;;;0.50;1.00;;;;;;5108150;28;20020;-91
2021/01/11 08:36:14;;;;;;;25.08;15.35;;;0.40;1.00;;;;;;5107192;28;20036;-90
2021/01/11 08:39:06;;;;;;;19.90;13.82;;;0.50;1.00;;;;;;5108313;28;20027;-86
2021/01/11 08:41:33;;;;;;;20.30;14.43;;;0.60;1.00;;;;;;5093304;28;20070;-86
2021/01/11 08:43:59;;;;;;;23.40;14.88;;;0.70;1.00;;;;;;5093805;28;20519;-85
2021/01/11 08:47:03;;;;;;;25.48;14.65;;;0.70;1.00;;;;;;5093153;28;20024;-84
2021/01/11 08:49:29;;;;;;;22.52;14.25;;;0.60;1.00;;;;;;5083834;28;20024;-87
2021/01/11 08:52:07;;;;;;;20.88;13.98;;;0.50;1.00;;;;;;5085527;28;20032;-86
2021/01/11 08:54:33;;;;;;;21.40;14.05;;;0.70;1.00;;;;;;5092006;28;20432;-89
2021/01/11 08:57:09;;;;;;;22.35;14.20;;;1.40;1.00;;;;;;5093714;28;20052;-91
2021/01/11 08:59:34;;;;;;;21.92;14.65;;;0.90;1.00;;;;;;5094470;28;20075;-88
2021/01/11 09:02:00;;;;;;;22.65;14.20;;;1.00;1.00;;;;;;5084279;28;20504;-88
2021/01/11 09:04:34;;;;;;;21.13;13.98;;;0.90;1.00;;;;;;5090773;28;20028;-91
2021/01/11 09:07:05;;;;;;;20.75;13.90;;;0.90;1.00;;;;;;5087757;28;20020;-90
2021/01/11 09:09:32;;;;;;;22.70;14.98;;;0.90;1.00;;;;;;5093436;28;20037;-91
2021/01/11 09:12:07;;;;;;;24.13;15.55;;;0.80;1.00;;;;;;5090143;28;20062;-91
2021/01/11 09:14:35;;;;;;;25.08;15.18;;;0.80;1.00;;;;;;5092312;28;20024;-88
2021/01/11 09:17:04;;;;;;;23.45;14.25;;;1.10;1.00;;;;;;5094964;28;20099;-91
2021/01/11 09:19:30;;;;;;;24.90;15.73;;;0.70;1.00;;;;;;5089762;28;20039;-90
2021/01/11 09:22:14;;;;;;;21.80;14.50;;;0.90;1.00;;;;;;5081539;28;20107;-91
2021/01/11 09:24:41;;;;;;;21.08;14.63;;;0.70;1.00;;;;;;5086012;28;20039;-93
2021/01/11 09:27:07;;;;;;;21.70;14.20;;;1.10;1.00;;;;;;5089953;28;20028;-91
2021/01/11 09:29:32;;;;;;;19.35;13.63;;;0.70;1.00;;;;;;5093226;28;20522;-92
2021/01/11 09:31:58;;;;;;;23.00;15.13;;;0.80;1.00;;;;;;5093605;28;20453;-90
2021/01/11 09:34:24;;;;;;;26.50;15.70;;;0.80;1.00;;;;;;5093772;28;20434;-92
2021/01/11 09:36:49;;;;;;;23.38;15.50;;;0.90;1.00;;;;;;5093974;28;20435;-91
2021/01/11 09:39:15;;;;;;;23.92;15.45;;;1.30;1.00;;;;;;5092619;28;20040;-88
2021/01/11 09:41:53;;;;;;;25.05;15.13;;;1.00;1.00;;;;;;5092649;28;20032;-87
2021/01/11 09:44:19;;;;;;;25.02;16.63;;;1.10;1.00;;;;;;5092147;28;20458;-87
2021/01/11 09:46:50;;;;;;;22.08;15.27;;;1.20;1.00;;;;;;5091594;28;20093;-87
2021/01/11 09:49:17;;;;;;;22.67;14.90;;;1.10;1.00;;;;;;5092637;28;20020;-89
2021/01/11 09:51:42;;;;;;;25.50;15.57;;;1.30;1.00;;;;;;5077031;28;20024;-89
2021/01/11 09:54:09;;;;;;;25.05;15.10;;;1.30;1.00;;;;;;5092150;28;20031;-86
2021/01/11 09:56:38;;;;;;;22.05;15.00;;;1.30;1.00;;;;;;5087726;28;20081;-87
2021/01/11 09:59:08;;;;;;;22.60;14.55;;;1.50;1.00;;;;;;5092871;28;20447;-87
2021/01/11 10:01:40;;;;;;;24.35;16.38;;;1.20;1.00;;;;;;5086081;28;20031;-87
2021/01/11 10:04:06;;;;;;;22.48;15.20;;;1.30;1.00;;;;;;5090286;28;20016;-87
2021/01/11 10:06:41;;;;;;;24.75;16.17;;;1.20;1.00;;;;;;5075699;28;20031;-87
2021/01/11 10:09:08;;;;;;;28.02;16.75;;;1.00;1.00;;;;;;5077982;28;20111;-87
2021/01/11 10:11:33;;;;;;;28.67;15.95;;;1.30;1.00;;;;;;5081501;28;20020;-86
2021/01/11 10:13:59;;;;;;;23.55;16.17;;;1.40;1.00;;;;;;5090876;28;20388;-86
2021/01/11 10:16:24;;;;;;;24.80;16.77;;;1.30;1.00;;;;;;5088276;28;20082;-87
2021/01/11 10:18:50;;;;;;;28.27;16.45;;;1.40;1.00;;;;;;5077365;28;20025;-86
2021/01/11 10:21:16;;;;;;;25.30;16.38;;;1.50;1.00;;;;;;5083522;28;20032;-86
2021/01/11 10:23:41;;;;;;;26.15;16.80;;;1.90;1.00;;;;;;5093078;28;20094;-87
2021/01/11 10:26:07;;;;;;;25.83;17.58;;;2.00;1.00;;;;;;5088371;28;20020;-86
2021/01/11 10:28:33;;;;;;;24.83;16.40;;;1.60;1.00;;;;;;5090831;28;20032;-87
2021/01/11 10:30:59;;;;;;;26.90;16.23;;;1.70;1.00;;;;;;5087871;28;20480;-86
2021/01/11 10:33:24;;;;;;;23.30;16.05;;;1.50;1.00;;;;;;5079276;28;20028;-86
2021/01/11 10:35:57;;;;;;;24.45;15.93;;;1.70;1.00;;;;;;5082406;28;20024;-86
2021/01/11 10:38:22;;;;;;;27.08;17.23;;;1.60;1.00;;;;;;5079509;28;20031;-85
2021/01/11 10:40:48;;;;;;;23.80;15.55;;;1.80;1.00;;;;;;5079878;28;21199;-86
2021/01/11 10:43:13;;;;;;;23.85;16.48;;;1.50;1.00;;;;;;5083541;28;20027;-86
2021/01/11 10:45:39;;;;;;;23.17;15.95;;;1.70;1.00;;;;;;5089714;28;20043;-85
2021/01/11 10:48:05;;;;;;;23.55;16.02;;;2.30;1.00;;;;;;5091374;28;20111;-85
2021/01/11 10:50:31;;;;;;;23.33;15.32;;;1.90;1.00;;;;;;5090753;28;20504;-85
2021/01/11 10:52:57;;;;;;;23.42;15.32;;;2.30;1.00;;;;;;5077219;28;20016;-86
2021/01/11 10:55:22;;;;;;;22.70;15.00;;;2.00;1.00;;;;;;5088908;28;20048;-85
2021/01/11 10:57:49;;;;;;;19.52;14.02;;;2.00;1.00;;;;;;5090466;28;20099;-87
2021/01/11 11:00:18;;;;;;;22.65;15.18;;;1.90;1.00;;;;;;5088583;28;20111;-85
2021/01/11 11:02:44;;;;;;;23.25;15.18;;;1.90;1.00;;;;;;5084912;28;20103;-85
2021/01/11 11:05:10;;;;;;;21.60;14.65;;;2.00;1.00;;;;;;5090540;28;20016;-87
2021/01/11 11:07:38;;;;;;;24.08;15.90;;;2.20;1.00;;;;;;5084631;28;20027;-87
2021/01/11 11:10:05;;;;;;;22.85;15.45;;;2.00;1.00;;;;;;5080187;28;20035;-84
2021/01/11 11:12:31;;;;;;;21.00;14.82;;;2.10;1.00;;;;;;5092116;28;20511;-83
2021/01/11 11:14:59;;;;;;;22.92;15.07;;;2.10;1.00;;;;;;5092134;28;20020;-84
2021/01/11 11:17:32;;;;;;;23.85;16.33;;;2.70;1.00;;;;;;5090799;28;20028;-83
2021/01/11 11:20:01;;;;;;;25.25;16.08;;;2.40;1.00;;;;;;5088681;28;20032;-83
2021/01/11 11:22:26;;;;;;;21.67;15.10;;;3.10;1.00;;;;;;5089941;28;20504;-84
2021/01/11 11:24:53;;;;;;;22.08;15.23;;;3.60;1.00;;;;;;5086316;28;20029;-83
2021/01/11 11:27:19;;;;;;;22.25;15.20;;;3.40;1.00;;;;;;5079490;28;20549;-86
2021/01/11 11:29:45;;;;;;;23.30;15.05;;;3.70;1.00;;;;;;5077829;28;20029;-83
2021/01/11 11:32:11;;;;;;;20.17;14.45;;;3.80;1.00;;;;;;5080141;28;20024;-83
2021/01/11 11:34:37;;;;;;;24.17;16.05;;;3.40;1.00;;;;;;5086629;28;20031;-84
2021/01/11 11:37:03;;;;;;;25.02;15.20;;;3.70;1.00;;;;;;5092065;28;20028;-81
2021/01/11 11:39:29;;;;;;;21.60;14.85;;;4.20;1.00;;;;;;5092638;28;20048;-83
2021/01/11 11:41:59;;;;;;;21.98;15.20;;;4.60;1.00;;;;;;5092960;28;20105;-84
2021/01/11 11:44:26;;;;;;;24.25;15.80;;;3.90;1.00;;;;;;5091562;28;20082;-83
2021/01/11 11:46:55;;;;;;;19.48;14.60;;;4.00;1.00;;;;;;5090613;28;20070;-84
2021/01/11 11:49:21;;;;;;;21.25;14.82;;;3.40;1.00;;;;;;5085186;28;20066;-84
2021/01/11 11:51:48;;;;;;;22.75;15.75;;;3.60;1.00;;;;;;5092146;28;20023;-84
2021/01/11 11:54:14;;;;;;;22.83;15.18;;;4.40;1.00;;;;;;5084044;28;20515;-83
2021/01/11 11:56:44;;;;;;;22.65;15.50;;;5.60;1.00;;;;;;5070833;28;20016;-86
2021/01/11 11:59:10;;;;;;;21.35;14.35;;;4.70;1.00;;;;;;5070760;28;20025;-85
2021/01/11 12:01:38;;;;;;;20.90;15.70;;;5.40;99.90;;;;;;5080647;28;20020;-83
2021/01/11 12:04:04;;;;;;;22.65;15.10;;;5.30;99.90;;;;;;5068319;28;20064;-83
2021/01/11 12:06:37;;;;;;;19.95;14.73;;;5.00;1.00;;;;;;5074076;28;20070;-89
2021/01/11 12:09:03;;;;;;;21.95;14.63;;;4.70;1.00;;;;;;5072086;28;20029;-83
2021/01/11 12:11:49;;;;;;;21.02;14.90;;;4.60;1.00;;;;;;5070152;28;20063;-83
2021/01/11 12:14:16;;;;;;;20.48;15.02;;;4.80;1.00;;;;;;5083333;28;20020;-83
2021/01/11 12:16:46;;;;;;;19.20;14.30;;;4.70;1.00;;;;;;5078379;28;20412;-82
2021/01/11 12:19:12;;;;;;;22.38;15.25;;;4.50;1.00;;;;;;5073218;28;20032;-83
2021/01/11 12:21:37;;;;;;;21.02;15.07;;;4.70;99.90;;;;;;5088603;28;20062;-83
2021/01/11 12:24:04;;;;;;;21.08;15.07;;;5.00;99.90;;;;;;5085840;28;20067;-83
2021/01/11 12:26:42;;;;;;;22.77;15.95;;;5.40;99.90;;;;;;5084304;28;20493;-84
2021/01/11 12:29:09;;;;;;;20.52;15.10;;;5.10;99.90;;;;;;5080544;28;20115;-84
2021/01/11 12:31:35;;;;;;;21.00;15.18;;;4.70;99.90;;;;;;5092023;28;20031;-85
2021/01/11 12:34:01;;;;;;;20.50;15.30;;;4.50;1.00;;;;;;5094250;28;20020;-85
2021/01/11 12:36:29;;;;;;;20.80;15.40;;;4.60;99.90;;;;;;5094051;28;20541;-84
2021/01/11 12:38:55;;;;;;;21.98;15.63;;;4.60;1.00;;;;;;5085936;28;20068;-85
2021/01/11 12:41:22;;;;;;;21.05;15.55;;;4.80;1.00;;;;;;5093045;28;20024;-84
2021/01/11 12:43:49;;;;;;;21.15;14.68;;;5.00;1.00;;;;;;5084001;28;20020;-84
2021/01/11 12:46:16;;;;;;;21.30;15.25;;;5.00;99.90;;;;;;5055075;28;20032;-85
2021/01/11 12:48:42;;;;;;;24.20;16.70;;;5.10;99.90;;;;;;5064797;28;20028;-84
2021/01/11 12:51:19;;;;;;;21.00;15.82;;;4.60;99.90;;;;;;5090079;28;20020;-84
2021/01/11 12:53:46;;;;;;;24.80;15.93;;;4.30;1.00;;;;;;5090556;28;20150;-83
2021/01/11 12:56:19;;;;;;;22.88;15.70;;;4.20;1.00;;;;;;5093460;28;20412;-86
2021/01/11 12:58:45;;;;;;;24.52;16.88;;;3.80;1.00;;;;;;5079067;28;20116;-85
2021/01/11 13:01:28;;;;;;;24.02;17.05;;;3.90;1.00;;;;;;5091314;28;20489;-85
2021/01/11 13:03:56;;;;;;;24.70;16.45;;;3.60;1.00;;;;;;5092710;28;20027;-85
2021/01/11 13:06:35;;;;;;;22.50;16.58;;;3.50;99.90;;;;;;5093391;28;20023;-84
2021/01/11 13:09:06;;;;;;;22.98;16.65;;;3.00;1.00;;;;;;5086469;28;20580;-85
2021/01/11 13:11:33;;;;;;;23.52;16.27;;;2.90;1.00;;;;;;5076026;28;20044;-85
2021/01/11 13:14:00;;;;;;;23.17;16.48;;;3.00;1.00;;;;;;5082055;28;20034;-86
2021/01/11 13:16:30;;;;;;;25.10;17.05;;;3.40;1.00;;;;;;5092433;28;20020;-86
2021/01/11 13:18:58;;;;;;;24.33;17.30;;;2.70;1.00;;;;;;5088532;28;20407;-86
2021/01/11 13:21:24;;;;;;;26.35;16.95;;;3.30;1.00;;;;;;5088075;28;20520;-86
2021/01/11 13:23:50;;;;;;;24.88;17.35;;;3.30;1.00;;;;;;5092423;28;20028;-85
2021/01/11 13:26:27;;;;;;;23.60;16.63;;;3.10;1.00;;;;;;5084602;28;20031;-85
2021/01/11 13:28:54;;;;;;;21.05;15.57;;;3.40;1.00;;;;;;5079262;28;20020;-85
2021/01/11 13:31:20;;;;;;;24.95;16.35;;;3.30;1.00;;;;;;5084852;28;20027;-85
2021/01/11 13:33:46;;;;;;;22.75;16.92;;;3.20;1.00;;;;;;5085520;28;20024;-85
2021/01/11 13:36:18;;;;;;;24.85;17.13;;;3.10;1.00;;;;;;5092922;28;20027;-85
2021/01/11 13:38:44;;;;;;;26.08;16.77;;;2.80;1.00;;;;;;5091602;28;20031;-86
2021/01/11 13:41:09;;;;;;;24.35;17.73;;;3.20;1.00;;;;;;5091312;28;20032;-86
2021/01/11 13:43:35;;;;;;;24.33;16.20;;;3.40;1.00;;;;;;5091861;28;20489;-86
2021/01/11 13:46:01;;;;;;;25.38;16.95;;;5.30;1.00;;;;;;5093065;28;20036;-85
2021/01/11 13:48:26;;;;;;;23.17;15.82;;;5.60;99.90;;;;;;5090384;28;20405;-85
2021/01/11 13:50:52;;;;;;;26.63;17.00;;;5.50;99.90;;;;;;5092954;28;20043;-85
2021/01/11 13:53:17;;;;;;;24.10;16.85;;;5.80;99.90;;;;;;5092031;28;20036;-85
2021/01/11 13:55:43;;;;;;;22.92;16.52;;;5.30;99.90;;;;;;5093849;28;20544;-85
2021/01/11 13:58:08;;;;;;;24.70;17.80;;;5.20;99.90;;;;;;5092768;28;20016;-85
2021/01/11 14:00:34;;;;;;;21.73;15.98;;;4.80;99.90;;;;;;5093676;28;20101;-86
2021/01/11 14:03:00;;;;;;;24.27;16.92;;;4.30;99.90;;;;;;5093597;28;20538;-89
2021/01/11 14:05:25;;;;;;;24.70;18.38;;;4.40;99.90;;;;;;5092728;28;20024;-85
2021/01/11 14:07:51;;;;;;;22.77;16.88;;;4.20;99.90;;;;;;5092270;28;20031;-86
2021/01/11 14:10:17;;;;;;;23.77;17.02;;;4.00;99.90;;;;;;5093743;28;20516;-86
2021/01/11 14:12:43;;;;;;;24.45;17.02;;;3.80;1.00;;;;;;5090223;28;20028;-85
2021/01/11 14:15:10;;;;;;;24.35;17.33;;;3.10;1.00;;;;;;5092309;28;20097;-85
2021/01/11 14:17:36;;;;;;;22.73;16.38;;;3.10;1.00;;;;;;5092281;28;20232;-85
2021/01/11 14:20:03;;;;;;;24.80;17.98;;;3.40;1.00;;;;;;5092193;28;20110;-86
2021/01/11 14:22:29;;;;;;;25.33;16.85;;;3.00;1.00;;;;;;5093411;28;20062;-85
2021/01/11 14:24:55;;;;;;;23.77;16.80;;;3.10;1.00;;;;;;5092227;28;20020;-85
2021/01/11 14:27:21;;;;;;;24.40;17.05;;;3.10;1.00;;;;;;5093014;28;20032;-85
2021/01/11 14:29:46;;;;;;;26.67;16.25;;;3.00;1.00;;;;;;5092022;28;20560;-85
2021/01/11 14:32:12;;;;;;;24.05;16.58;;;3.50;1.00;;;;;;5085954;28;20508;-85
2021/01/11 14:34:38;;;;;;;24.13;17.17;;;3.60;1.00;;;;;;5092745;28;20027;-85
2021/01/11 14:37:04;;;;;;;24.58;17.10;;;4.20;1.00;;;;;;5093333;28;20077;-85
2021/01/11 14:39:30;;;;;;;24.48;16.45;;;4.40;1.00;;;;;;5092356;28;20123;-85
2021/01/11 14:42:03;;;;;;;23.23;16.50;;;4.70;99.90;;;;;;5091736;28;20032;-85
2021/01/11 14:44:29;;;;;;;21.67;15.77;;;4.90;1.00;;;;;;5093141;28;20103;-85
2021/01/11 14:46:55;;;;;;;20.48;15.20;;;5.60;99.90;;;;;;5085407;28;20521;-85
2021/01/11 14:49:20;;;;;;;22.85;16.08;;;6.30;99.90;;;;;;5087241;28;20141;-85
2021/01/11 14:51:46;;;;;;;25.85;17.17;;;6.00;99.90;;;;;;5092252;28;20095;-85
2021/01/11 14:54:12;;;;;;;22.60;16.67;;;5.70;99.90;;;;;;5091548;28;20016;-85
2021/01/11 14:56:37;;;;;;;26.25;16.88;;;5.30;99.90;;;;;;5091640;28;20129;-85
2021/01/11 14:59:03;;;;;;;23.20;16.52;;;5.60;99.90;;;;;;5093059;28;20551;-85
2021/01/11 15:01:29;;;;;;;23.52;16.92;;;6.10;99.90;;;;;;5090239;28;20139;-85
2021/01/11 15:03:54;;;;;;;23.38;16.08;;;6.00;99.90;;;;;;5092804;28;20102;-85
2021/01/11 15:06:20;;;;;;;22.83;15.82;;;5.60;99.90;;;;;;5091703;28;20028;-86
2021/01/11 15:08:47;;;;;;;22.30;16.05;;;5.00;99.90;;;;;;5091311;28;20023;-85
2021/01/11 15:11:14;;;;;;;22.98;17.27;;;4.20;99.90;;;;;;5091509;28;20027;-85
2021/01/11 15:13:41;;;;;;;23.85;17.00;;;4.00;99.90;;;;;;5092490;28;20069;-85
2021/01/11 15:16:07;;;;;;;25.48;17.52;;;4.70;99.90;;;;;;5090883;28;20039;-85
2021/01/11 15:18:33;;;;;;;24.45;16.92;;;5.10;99.90;;;;;;5092486;28;20016;-85
2021/01/11 15:21:06;;;;;;;22.42;16.80;;;4.70;99.90;;;;;;5091336;28;20032;-85
2021/01/11 15:23:32;;;;;;;24.33;17.15;;;5.00;99.90;;;;;;5091635;28;20024;-85
2021/01/11 15:25:57;;;;;;;25.73;17.80;;;4.90;99.90;;;;;;5091272;28;20028;-85
2021/01/11 15:28:23;;;;;;;25.20;18.02;;;4.70;99.90;;;;;;5092523;28;20024;-85
2021/01/11 15:30:49;;;;;;;24.58;17.20;;;4.60;99.90;;;;;;5092055;28;20115;-85
2021/01/11 15:33:14;;;;;;;23.52;16.65;;;4.30;99.90;;;;;;5089763;28;20489;-85
2021/01/11 15:35:41;;;;;;;24.95;17.80;;;4.10;99.90;;;;;;5092431;28;20031;-85
2021/01/11 15:38:08;;;;;;;23.85;17.50;;;3.90;99.90;;;;;;5092337;28;20389;-85
2021/01/11 15:40:35;;;;;;;25.15;17.20;;;3.80;99.90;;;;;;5092176;28;20055;-85
2021/01/11 15:43:01;;;;;;;26.08;18.35;;;4.10;99.90;;;;;;5092272;28;20024;-85
2021/01/11 15:45:27;;;;;;;27.65;18.63;;;3.60;99.90;;;;;;5090656;28;20031;-86
2021/01/11 15:47:53;;;;;;;25.30;17.67;;;3.80;99.90;;;;;;5089106;28;20552;-85
2021/01/11 15:50:19;;;;;;;24.92;18.33;;;3.20;1.00;;;;;;5091406;28;20051;-85
2021/01/11 15:52:48;;;;;;;25.55;18.75;;;3.50;1.00;;;;;;5096316;28;20024;-86
2021/01/11 15:55:14;;;;;;;25.77;17.80;;;3.00;1.00;;;;;;5095086;28;20050;-86
2021/01/11 15:57:41;;;;;;;23.63;16.65;;;2.80;1.00;;;;;;5096298;28;20021;-86
2021/01/11 16:00:09;;;;;;;22.67;16.35;;;2.50;1.00;;;;;;5096016;28;20028;-86
2021/01/11 16:02:39;;;;;;;26.60;17.23;;;2.00;1.00;;;;;;5092732;28;20028;-86
2021/01/11 16:05:06;;;;;;;24.90;16.98;;;1.80;1.00;;;;;;5096162;28;20056;-86
2021/01/11 16:07:31;;;;;;;27.17;18.02;;;1.50;1.00;;;;;;5094863;28;20035;-86
2021/01/11 16:09:57;;;;;;;25.35;17.75;;;1.50;1.00;;;;;;5094535;28;20024;-86
2021/01/11 16:12:23;;;;;;;26.65;17.83;;;1.70;1.00;;;;;;5094755;28;20048;-86
2021/01/11 16:14:48;;;;;;;25.52;17.60;;;1.80;1.00;;;;;;5094415;28;20020;-86
2021/01/11 16:17:14;;;;;;;29.50;18.42;;;1.30;1.00;;;;;;5091387;28;20028;-86
2021/01/11 16:19:40;;;;;;;27.08;18.13;;;0.90;1.00;;;;;;5095711;28;20020;-85
2021/01/11 16:22:05;;;;;;;29.58;20.10;;;0.80;1.00;;;;;;5094499;28;20512;-86
2021/01/11 16:24:31;;;;;;;32.85;20.20;;;1.30;1.00;;;;;;5095811;28;20058;-86
2021/01/11 16:26:56;;;;;;;30.98;20.73;;;0.60;1.00;;;;;;5095472;28;20435;-85
2021/01/11 16:29:22;;;;;;;30.40;20.17;;;0.70;1.00;;;;;;5095463;28;20035;-86
2021/01/11 16:31:48;;;;;;;34.85;22.60;;;1.10;1.00;;;;;;5089625;28;20029;-86
2021/01/11 16:34:13;;;;;;;29.60;19.13;;;0.80;1.00;;;;;;5075290;28;20013;-86
2021/01/11 16:36:39;;;;;;;33.58;22.50;;;0.60;1.00;;;;;;5075294;28;20107;-86
2021/01/11 16:39:05;;;;;;;33.40;21.33;;;0.70;1.00;;;;;;5073611;28;20041;-86
2021/01/11 16:41:31;;;;;;;33.08;21.55;;;0.70;1.00;;;;;;5073531;28;20437;-86
2021/01/11 16:43:57;;;;;;;33.30;21.83;;;0.70;1.00;;;;;;5074853;28;20016;-86
2021/01/11 16:46:24;;;;;;;32.38;21.27;;;0.30;1.00;;;;;;5082642;28;20028;-86
2021/01/11 16:48:51;;;;;;;40.65;27.02;;;0.70;1.00;;;;;;5093532;28;20016;-86
2021/01/11 16:51:22;;;;;;;36.75;26.65;;;0.30;1.00;;;;;;5095139;28;20484;-87
2021/01/11 16:53:48;;;;;;;34.00;22.95;;;0.10;1.00;;;;;;5093955;28;20023;-86
2021/01/11 16:56:20;;;;;;;32.25;19.77;;;0.20;1.00;;;;;;5093498;28;20458;-86
2021/01/11 16:58:46;;;;;;;31.08;20.85;;;0.20;1.00;;;;;;5095066;28;20070;-87
2021/01/11 17:01:12;;;;;;;42.80;31.25;;;0.30;1.00;;;;;;5093667;28;20024;-87
2021/01/11 17:03:37;;;;;;;27.80;19.25;;;0.50;1.00;;;;;;5093930;28;20016;-87
2021/01/11 17:06:05;;;;;;;28.00;19.23;;;0.20;1.00;;;;;;5094889;28;20031;-87
2021/01/11 17:08:32;;;;;;;31.42;20.00;;;0.20;1.00;;;;;;5093701;28;20024;-87
2021/01/11 17:10:58;;;;;;;31.55;19.48;;;0.20;1.00;;;;;;5093418;28;20035;-87
2021/01/11 17:13:24;;;;;;;29.42;18.17;;;0.20;1.00;;;;;;5094729;28;20505;-88
2021/01/11 17:15:53;;;;;;;32.95;20.73;;;0.20;1.00;;;;;;5092041;28;20032;-88
2021/01/11 17:18:19;;;;;;;31.65;19.95;;;0.00;1.00;;;;;;5093629;28;20153;-88
2021/01/11 17:20:45;;;;;;;34.28;20.58;;;0.30;1.00;;;;;;5093545;28;20527;-88
2021/01/11 17:23:10;;;;;;;30.60;20.23;;;0.20;1.00;;;;;;5094912;28;20026;-88
2021/01/11 17:25:36;;;;;;;32.90;20.38;;;0.10;1.00;;;;;;5094646;28;20028;-88
2021/01/11 17:28:03;;;;;;;33.83;20.90;;;0.10;1.00;;;;;;5093345;28;20016;-88
2021/01/11 17:30:29;;;;;;;32.72;20.50;;;0.00;1.00;;;;;;5091730;28;20056;-88
2021/01/11 17:32:55;;;;;;;31.00;20.05;;;0.10;1.00;;;;;;5085338;28;20055;-87
2021/01/11 17:35:20;;;;;;;32.47;20.50;;;0.30;1.00;;;;;;5092640;28;20070;-88
2021/01/11 17:37:46;;;;;;;31.50;20.70;;;0.30;1.00;;;;;;5093241;28;20012;-88
2021/01/11 17:40:12;;;;;;;32.55;21.05;;;0.20;1.00;;;;;;5092838;28;20055;-88
2021/01/11 17:42:38;;;;;;;32.00;20.80;;;0.10;1.00;;;;;;5093212;28;20024;-88
2021/01/11 17:45:07;;;;;;;34.13;21.35;;;0.20;1.00;;;;;;5093283;28;20073;-88
2021/01/11 17:47:33;;;;;;;34.28;21.75;;;0.20;1.00;;;;;;5093318;28;20035;-88
2021/01/11 17:49:59;;;;;;;33.47;21.52;;;0.30;1.00;;;;;;5092922;28;20032;-86
2021/01/11 17:52:25;;;;;;;34.75;21.15;;;0.40;1.00;;;;;;5093011;28;20028;-88
2021/01/11 17:54:50;;;;;;;35.22;22.00;;;0.40;1.00;;;;;;5092932;28;20032;-88
2021/01/11 17:57:16;;;;;;;35.67;22.00;;;0.50;1.00;;;;;;5092953;28;20020;-87
2021/01/11 17:59:42;;;;;;;35.60;22.15;;;1.00;1.00;;;;;;5090657;28;20035;-88
2021/01/11 18:02:08;;;;;;;31.60;20.63;;;0.60;1.00;;;;;;5092613;28;20020;-88
2021/01/11 18:04:34;;;;;;;34.13;21.52;;;0.70;1.00;;;;;;5092823;28;20024;-88
2021/01/11 18:07:04;;;;;;;31.92;20.88;;;0.70;1.00;;;;;;5094155;28;20028;-87
2021/01/11 18:09:30;;;;;;;32.22;21.30;;;0.60;1.00;;;;;;5092347;28;20031;-88
2021/01/11 18:11:56;;;;;;;35.35;21.88;;;1.20;1.00;;;;;;5092538;28;20020;-88
2021/01/11 18:14:21;;;;;;;34.65;21.02;;;1.30;1.00;;;;;;5090448;28;20020;-87
2021/01/11 18:16:47;;;;;;;32.38;20.85;;;0.60;1.00;;;;;;5092639;28;20023;-88
2021/01/11 18:19:12;;;;;;;33.55;21.48;;;0.80;1.00;;;;;;5093773;28;20414;-88
2021/01/11 18:21:38;;;;;;;38.17;23.08;;;0.70;1.00;;;;;;5093828;28;20023;-88
2021/01/11 18:24:04;;;;;;;31.27;20.88;;;0.80;1.00;;;;;;5092342;28;20042;-88
2021/01/11 18:26:30;;;;;;;34.72;21.77;;;0.80;1.00;;;;;;5092276;28;20020;-88
2021/01/11 18:28:57;;;;;;;35.65;21.80;;;0.90;1.00;;;;;;5090567;28;20028;-88
2021/01/11 18:31:24;;;;;;;35.35;21.98;;;0.90;1.00;;;;;;5081499;28;20044;-88
2021/01/11 18:33:52;;;;;;;35.35;21.92;;;1.00;1.00;;;;;;5073067;28;20029;-88
2021/01/11 18:36:19;;;;;;;33.92;22.05;;;1.10;1.00;;;;;;5071806;28;20024;-88
2021/01/11 18:38:45;;;;;;;33.63;21.15;;;1.10;1.00;;;;;;5071436;28;20085;-88